Time;durP1;ratioP1;P1;durP2;ratioP2;P2;SDS_P1;SDS_P2;PMS_P1;PMS_P2;Temp;Humidity;BMP_temperature;BMP_pressure;BME280_temperature;BME280_humidity;BME280_pressure;Samples;Min_cycle;Max_cycle;Signal;HPM_P1;HPM_P2
2024/04/13 00:01:50;;;;;;;3.70;3.40;;;14.00;99.90;;;;;;5477412;26;20971;-68
2024/04/13 00:04:15;;;;;;;4.67;3.60;;;13.80;99.90;;;;;;5443298;26;20646;-67
2024/04/13 00:06:41;;;;;;;4.00;2.77;;;13.80;99.90;;;;;;5441144;26;20218;-68
2024/04/13 00:09:07;;;;;;;6.80;3.90;;;13.70;99.90;;;;;;5439020;26;20273;-67
2024/04/13 00:11:32;;;;;;;5.30;3.50;;;13.70;99.90;;;;;;5440963;26;20215;-67
2024/04/13 00:13:58;;;;;;;6.43;3.70;;;13.60;99.90;;;;;;5439643;26;20600;-67
2024/04/13 00:16:23;;;;;;;4.77;3.33;;;13.70;99.90;;;;;;5440888;26;20579;-68
2024/04/13 00:18:49;;;;;;;5.83;3.60;;;13.60;99.90;;;;;;5440784;26;20224;-67
2024/04/13 00:21:15;;;;;;;3.33;2.90;;;13.60;99.90;;;;;;5440723;26;20261;-68
2024/04/13 00:23:42;;;;;;;5.80;3.97;;;13.60;99.90;;;;;;5447914;26;21199;-67
2024/04/13 00:26:08;;;;;;;8.93;3.67;;;13.60;99.90;;;;;;5476535;26;20259;-67
2024/04/13 00:28:33;;;;;;;4.40;4.00;;;13.60;99.90;;;;;;5476867;26;21079;-68
2024/04/13 00:30:59;;;;;;;6.40;4.03;;;13.60;99.90;;;;;;5476514;26;20675;-67
2024/04/13 00:33:25;;;;;;;4.73;3.93;;;13.40;99.90;;;;;;5457562;26;20223;-68
2024/04/13 00:35:50;;;;;;;7.87;4.10;;;13.40;99.90;;;;;;5440330;26;20260;-67
2024/04/13 00:38:16;;;;;;;8.23;4.30;;;13.30;99.90;;;;;;5442138;26;20471;-68
2024/04/13 00:40:42;;;;;;;7.63;3.70;;;13.30;99.90;;;;;;5476344;26;20632;-67
2024/04/13 00:43:09;;;;;;;5.37;4.33;;;13.40;99.90;;;;;;5460759;26;20802;-68
2024/04/13 00:45:46;;;;;;;6.40;3.60;;;13.40;99.90;;;;;;5440608;26;20227;-68
2024/04/13 00:48:16;;;;;;;4.93;4.13;;;13.40;99.90;;;;;;5438868;26;20545;-68
2024/04/13 00:50:45;;;;;;;5.13;3.60;;;13.50;99.90;;;;;;5441032;26;20936;-67
2024/04/13 00:53:13;;;;;;;3.90;3.50;;;13.50;99.90;;;;;;5448826;26;21026;-66
2024/04/13 00:55:40;;;;;;;4.40;3.77;;;13.50;99.90;;;;;;5476836;26;21123;-66
2024/04/13 00:58:07;;;;;;;5.20;3.87;;;13.50;99.90;;;;;;5467542;26;21189;-67
2024/04/13 01:00:34;;;;;;;7.00;4.27;;;13.50;99.90;;;;;;5440180;26;20520;-67
2024/04/13 01:03:00;;;;;;;5.53;4.20;;;13.50;99.90;;;;;;5440467;26;21074;-67
2024/04/13 01:05:33;;;;;;;6.20;3.80;;;13.40;99.90;;;;;;5439055;26;20800;-67
2024/04/13 01:08:00;;;;;;;6.80;4.47;;;13.40;99.90;;;;;;5439753;26;20493;-67
2024/04/13 01:10:27;;;;;;;6.13;4.00;;;13.40;99.90;;;;;;5440346;26;20487;-68
2024/04/13 01:12:53;;;;;;;4.40;4.00;;;13.30;99.90;;;;;;5440228;26;21003;-67
2024/04/13 01:15:19;;;;;;;6.33;4.40;;;13.40;99.90;;;;;;5440760;26;20485;-68
2024/04/13 01:17:46;;;;;;;6.03;3.97;;;13.40;99.90;;;;;;5440260;26;20446;-67
2024/04/13 01:20:13;;;;;;;5.93;4.00;;;13.50;99.90;;;;;;5438379;26;20238;-66
2024/04/13 01:22:45;;;;;;;6.93;4.27;;;13.50;99.90;;;;;;5441543;26;20457;-67
2024/04/13 01:25:14;;;;;;;6.87;4.43;;;13.50;99.90;;;;;;5447786;26;20449;-67
2024/04/13 01:27:40;;;;;;;6.70;4.33;;;13.40;99.90;;;;;;5458691;26;20458;-67
2024/04/13 01:30:11;;;;;;;7.13;4.27;;;13.20;99.90;;;;;;5476328;26;20503;-67
2024/04/13 01:32:38;;;;;;;4.80;3.73;;;13.20;99.90;;;;;;5444108;26;20453;-67
2024/04/13 01:35:13;;;;;;;5.37;4.00;;;13.10;99.90;;;;;;5439705;26;20464;-67
2024/04/13 01:37:41;;;;;;;5.43;3.73;;;13.00;99.90;;;;;;5440197;26;20443;-67
2024/04/13 01:40:08;;;;;;;4.90;4.10;;;13.00;99.90;;;;;;5471560;26;20522;-67
2024/04/13 01:42:35;;;;;;;4.93;4.03;;;12.90;99.90;;;;;;5470172;26;20551;-66
2024/04/13 01:45:00;;;;;;;7.30;4.23;;;12.80;99.90;;;;;;5439693;26;20468;-67
2024/04/13 01:47:26;;;;;;;5.87;4.10;;;12.80;99.90;;;;;;5439430;26;20501;-67
2024/04/13 01:49:52;;;;;;;6.40;4.17;;;12.80;99.90;;;;;;5439980;26;20470;-67
2024/04/13 01:52:20;;;;;;;5.63;4.10;;;12.90;99.90;;;;;;5439317;26;20288;-68
2024/04/13 01:54:48;;;;;;;5.80;4.00;;;12.90;99.90;;;;;;5438534;26;20545;-68
2024/04/13 01:57:14;;;;;;;8.83;4.10;;;12.90;99.90;;;;;;5457122;26;20966;-67
2024/04/13 01:59:41;;;;;;;5.97;3.97;;;12.90;99.90;;;;;;5439465;26;20452;-68
2024/04/13 02:02:07;;;;;;;4.70;3.90;;;12.90;99.90;;;;;;5439430;26;20730;-67
2024/04/13 02:04:32;;;;;;;5.53;3.87;;;13.00;99.90;;;;;;5439231;26;20575;-68
2024/04/13 02:06:59;;;;;;;4.97;4.20;;;13.00;99.90;;;;;;5438622;26;20220;-67
2024/04/13 02:09:25;;;;;;;4.80;4.27;;;13.00;99.90;;;;;;5454275;26;20440;-67
2024/04/13 02:11:51;;;;;;;6.13;4.03;;;13.00;99.90;;;;;;5475516;26;20436;-67
2024/04/13 02:14:17;;;;;;;4.47;3.80;;;13.10;99.90;;;;;;5444522;26;20452;-67
2024/04/13 02:16:42;;;;;;;8.27;4.37;;;13.20;99.90;;;;;;5439396;26;20270;-67
2024/04/13 02:19:08;;;;;;;6.40;4.73;;;13.20;99.90;;;;;;5438924;26;20283;-67
2024/04/13 02:21:33;;;;;;;7.83;4.97;;;13.10;99.90;;;;;;5439157;26;20218;-67
2024/04/13 02:23:59;;;;;;;4.40;3.73;;;12.90;99.90;;;;;;5446661;26;20236;-67
2024/04/13 02:26:25;;;;;;;6.20;4.03;;;12.90;99.90;;;;;;5439087;26;20357;-67
2024/04/13 02:28:51;;;;;;;5.63;3.73;;;12.80;99.90;;;;;;5438765;26;20220;-67
2024/04/13 02:31:17;;;;;;;7.10;4.20;;;12.60;99.90;;;;;;5438572;26;20230;-67
2024/04/13 02:33:42;;;;;;;7.67;4.37;;;12.60;99.90;;;;;;5438690;26;20526;-67
2024/04/13 02:36:08;;;;;;;7.57;4.27;;;12.70;99.90;;;;;;5438779;26;20449;-66
2024/04/13 02:38:33;;;;;;;3.60;3.30;;;12.80;99.90;;;;;;5437964;26;20225;-67
2024/04/13 02:41:00;;;;;;;7.03;4.70;;;12.70;99.90;;;;;;5438685;26;20728;-67
2024/04/13 02:43:30;;;;;;;9.87;5.03;;;12.50;99.90;;;;;;5438450;26;20253;-68
2024/04/13 02:46:02;;;;;;;5.07;3.83;;;12.40;99.90;;;;;;5438757;26;21004;-67
2024/04/13 02:48:27;;;;;;;3.47;3.17;;;12.50;99.90;;;;;;5441927;26;20958;-67
2024/04/13 02:50:53;;;;;;;6.67;4.00;;;12.60;99.90;;;;;;5466379;26;20501;-67
2024/04/13 02:53:19;;;;;;;10.37;4.60;;;12.70;99.90;;;;;;5463431;26;20279;-66
2024/04/13 02:55:44;;;;;;;6.20;4.53;;;12.70;99.90;;;;;;5478009;26;20498;-67
2024/04/13 02:58:10;;;;;;;4.60;3.43;;;12.70;99.90;;;;;;5478102;26;20217;-66
2024/04/13 03:00:35;;;;;;;5.57;4.10;;;12.70;99.90;;;;;;5478000;26;20230;-67
2024/04/13 03:03:01;;;;;;;6.03;3.90;;;12.80;99.90;;;;;;5467972;26;20437;-67
2024/04/13 03:05:26;;;;;;;4.83;4.23;;;12.80;99.90;;;;;;5441954;26;20217;-66
2024/04/13 03:07:52;;;;;;;4.57;4.13;;;12.80;99.90;;;;;;5441255;26;20215;-66
2024/04/13 03:10:18;;;;;;;4.77;4.07;;;12.80;99.90;;;;;;5445519;26;20673;-67
2024/04/13 03:12:43;;;;;;;4.83;4.40;;;12.70;99.90;;;;;;5441441;26;20226;-67
2024/04/13 03:15:09;;;;;;;6.83;4.30;;;12.60;99.90;;;;;;5441821;26;20555;-68
2024/04/13 03:17:35;;;;;;;11.13;3.90;;;12.60;99.90;;;;;;5449542;26;20327;-66
2024/04/13 03:20:00;;;;;;;6.37;3.93;;;12.50;99.90;;;;;;5453109;26;20325;-67
2024/04/13 03:22:26;;;;;;;5.03;4.03;;;12.50;99.90;;;;;;5457141;26;20270;-67
2024/04/13 03:24:52;;;;;;;6.03;4.03;;;12.50;99.90;;;;;;5442778;26;20696;-67
2024/04/13 03:27:17;;;;;;;7.37;3.87;;;12.60;99.90;;;;;;5470597;26;20226;-67
2024/04/13 03:29:43;;;;;;;4.60;4.10;;;12.50;99.90;;;;;;5441542;26;20226;-67
2024/04/13 03:32:08;;;;;;;4.07;3.67;;;12.40;99.90;;;;;;5441196;26;20663;-67
2024/04/13 03:34:34;;;;;;;6.50;4.37;;;12.40;99.90;;;;;;5441234;26;20230;-66
2024/04/13 03:37:00;;;;;;;8.27;4.37;;;12.40;99.90;;;;;;5437656;26;20336;-67
2024/04/13 03:39:27;;;;;;;4.43;4.00;;;12.40;99.90;;;;;;5455866;26;20326;-67
2024/04/13 03:41:53;;;;;;;6.03;3.73;;;12.40;99.90;;;;;;5477596;26;20434;-67
2024/04/13 03:44:19;;;;;;;5.20;4.33;;;12.40;99.90;;;;;;5441356;26;20993;-68
2024/04/13 03:46:45;;;;;;;6.80;4.60;;;12.50;99.90;;;;;;5439766;26;20450;-68
2024/04/13 03:49:10;;;;;;;4.80;3.70;;;12.50;99.90;;;;;;5472890;26;21001;-67
2024/04/13 03:51:36;;;;;;;8.00;4.17;;;12.40;99.90;;;;;;5473764;26;20282;-67
2024/04/13 03:54:02;;;;;;;8.13;4.57;;;12.40;99.90;;;;;;5456104;26;20230;-68
2024/04/13 03:56:27;;;;;;;9.80;5.03;;;12.30;99.90;;;;;;5442471;26;20671;-67
2024/04/13 03:58:53;;;;;;;5.20;4.57;;;12.20;99.90;;;;;;5441140;26;20437;-68
2024/04/13 04:01:19;;;;;;;4.30;3.90;;;12.20;99.90;;;;;;5440640;26;20270;-67
2024/04/13 04:03:44;;;;;;;5.07;4.47;;;12.20;99.90;;;;;;5441032;26;20323;-68
2024/04/13 04:06:10;;;;;;;6.80;4.83;;;12.20;99.90;;;;;;5440475;26;20216;-67
2024/04/13 04:08:35;;;;;;;5.53;4.20;;;12.20;99.90;;;;;;5450209;26;20272;-67
2024/04/13 04:11:01;;;;;;;4.40;4.00;;;12.10;99.90;;;;;;5473584;26;20297;-67
2024/04/13 04:13:26;;;;;;;6.83;4.93;;;12.00;99.90;;;;;;5462720;26;20238;-67
2024/04/13 04:15:52;;;;;;;8.10;4.63;;;12.00;99.90;;;;;;5440765;26;20259;-67
2024/04/13 04:18:18;;;;;;;6.57;4.80;;;12.00;99.90;;;;;;5441190;26;20329;-67
2024/04/13 04:20:47;;;;;;;6.17;5.10;;;12.10;99.90;;;;;;5440621;26;20259;-68
2024/04/13 04:23:13;;;;;;;6.93;5.17;;;12.10;99.90;;;;;;5438964;26;20468;-67
2024/04/13 04:25:42;;;;;;;5.20;4.70;;;12.00;99.90;;;;;;5469136;26;20512;-67
2024/04/13 04:28:07;;;;;;;12.40;4.93;;;12.00;99.90;;;;;;5440704;26;20567;-68
2024/04/13 04:30:33;;;;;;;6.23;5.17;;;11.90;99.90;;;;;;5438349;26;20445;-67
2024/04/13 04:32:58;;;;;;;8.67;5.40;;;11.90;99.90;;;;;;5440432;26;20219;-68
2024/04/13 04:35:24;;;;;;;7.33;6.33;;;12.00;99.90;;;;;;5440417;26;20738;-67
2024/04/13 04:37:49;;;;;;;7.10;5.50;;;12.00;99.90;;;;;;5442991;26;20227;-67
2024/04/13 04:40:15;;;;;;;8.80;5.53;;;12.00;99.90;;;;;;5439372;26;20237;-67
2024/04/13 04:42:41;;;;;;;5.40;4.50;;;12.00;99.90;;;;;;5440466;26;20790;-67
2024/04/13 04:45:07;;;;;;;7.67;5.70;;;12.10;99.90;;;;;;5440043;26;20723;-68
2024/04/13 04:47:33;;;;;;;5.23;4.70;;;12.00;99.90;;;;;;5440344;26;20703;-68
2024/04/13 04:49:59;;;;;;;14.30;5.33;;;12.10;99.90;;;;;;5440339;26;20564;-68
2024/04/13 04:52:25;;;;;;;9.17;6.00;;;12.10;99.90;;;;;;5440179;26;20581;-67
2024/04/13 04:54:51;;;;;;;5.40;4.90;;;12.10;99.90;;;;;;5439138;26;21025;-68
2024/04/13 04:57:16;;;;;;;8.60;5.13;;;12.00;99.90;;;;;;5438071;26;20423;-67
2024/04/13 04:59:42;;;;;;;6.50;5.27;;;12.00;99.90;;;;;;5438872;26;20241;-68
2024/04/13 05:02:08;;;;;;;5.43;4.77;;;12.00;99.90;;;;;;5440492;26;20323;-67
2024/04/13 05:04:33;;;;;;;6.17;5.13;;;12.10;99.90;;;;;;5438329;26;20528;-69
2024/04/13 05:06:59;;;;;;;6.83;5.90;;;12.20;99.90;;;;;;5439794;26;20217;-68
2024/04/13 05:09:26;;;;;;;6.07;4.70;;;12.20;99.90;;;;;;5438293;26;20329;-68
2024/04/13 05:11:52;;;;;;;6.53;5.83;;;12.10;99.90;;;;;;5455862;26;20227;-67
2024/04/13 05:14:18;;;;;;;5.63;4.40;;;12.10;99.90;;;;;;5450597;26;21010;-67
2024/04/13 05:16:44;;;;;;;7.40;4.97;;;12.20;99.90;;;;;;5440002;26;20711;-67
2024/04/13 05:19:11;;;;;;;6.10;4.80;;;12.20;99.90;;;;;;5456879;26;20511;-67
2024/04/13 05:21:37;;;;;;;5.23;4.77;;;12.20;99.90;;;;;;5440839;26;20449;-67
2024/04/13 05:24:03;;;;;;;7.00;5.03;;;12.30;99.90;;;;;;5438689;26;20517;-67
2024/04/13 05:26:29;;;;;;;7.80;5.17;;;12.30;99.90;;;;;;5439874;26;20434;-67
2024/04/13 05:28:54;;;;;;;5.63;4.80;;;12.30;99.90;;;;;;5439751;26;20209;-67
2024/04/13 05:31:20;;;;;;;4.80;4.40;;;12.30;99.90;;;;;;5439628;26;20262;-66
2024/04/13 05:33:46;;;;;;;8.70;6.10;;;12.30;99.90;;;;;;5440834;26;20274;-67
2024/04/13 05:36:11;;;;;;;5.30;4.80;;;12.30;99.90;;;;;;5439491;26;20224;-66
2024/04/13 05:38:37;;;;;;;5.20;4.80;;;12.30;99.90;;;;;;5465214;26;20612;-67
2024/04/13 05:41:04;;;;;;;5.00;4.50;;;12.30;99.90;;;;;;5440803;26;20223;-67
2024/04/13 05:43:30;;;;;;;5.40;4.60;;;12.40;99.90;;;;;;5455464;26;20254;-67
2024/04/13 05:45:55;;;;;;;4.90;4.40;;;12.50;99.90;;;;;;5441781;26;20909;-68
2024/04/13 05:48:21;;;;;;;6.00;4.57;;;12.60;99.90;;;;;;5442762;26;21448;-66
2024/04/13 05:50:58;;;;;;;5.50;5.00;;;12.60;99.90;;;;;;5438472;26;20227;-68
2024/04/13 05:53:24;;;;;;;11.00;5.93;;;12.60;99.90;;;;;;5447237;26;20754;-67
2024/04/13 05:55:50;;;;;;;7.20;5.63;;;12.60;99.90;;;;;;5445420;26;20507;-67
2024/04/13 05:58:16;;;;;;;9.60;5.33;;;12.70;99.90;;;;;;5475482;26;20573;-68
2024/04/13 06:00:46;;;;;;;5.60;5.10;;;12.80;99.90;;;;;;5457634;26;20804;-67
2024/04/13 06:03:12;;;;;;;8.73;5.77;;;12.80;99.90;;;;;;5439179;26;20463;-66
2024/04/13 06:05:38;;;;;;;9.60;6.30;;;12.70;99.90;;;;;;5439316;26;20434;-67
2024/04/13 06:08:03;;;;;;;6.37;5.20;;;12.80;99.90;;;;;;5439843;26;20443;-68
2024/04/13 06:10:29;;;;;;;5.83;4.83;;;13.00;99.90;;;;;;5439136;26;20222;-68
2024/04/13 06:12:55;;;;;;;6.70;6.00;;;13.10;99.90;;;;;;5453567;26;20485;-67
2024/04/13 06:15:21;;;;;;;7.00;5.63;;;13.20;99.90;;;;;;5439240;26;20258;-67
2024/04/13 06:17:46;;;;;;;5.67;5.07;;;13.40;99.90;;;;;;5438594;26;20500;-67
2024/04/13 06:20:12;;;;;;;6.33;5.53;;;13.50;99.90;;;;;;5438874;26;20235;-67
2024/04/13 06:22:38;;;;;;;5.00;4.60;;;13.60;99.90;;;;;;5436814;26;21448;-67
2024/04/13 06:25:09;;;;;;;5.73;4.00;;;13.70;99.90;;;;;;5443002;26;20321;-67
2024/04/13 06:27:35;;;;;;;7.93;4.40;;;13.80;99.90;;;;;;5456790;26;20229;-67
2024/04/13 06:30:01;;;;;;;5.60;4.90;;;14.00;99.90;;;;;;5464861;26;20454;-67
2024/04/13 06:32:26;;;;;;;5.13;4.50;;;14.10;99.90;;;;;;5437660;26;20454;-67
2024/04/13 06:34:52;;;;;;;4.97;4.47;;;14.20;99.90;;;;;;5467525;26;20508;-68
2024/04/13 06:37:18;;;;;;;5.40;5.00;;;14.30;99.90;;;;;;5468357;26;20727;-67
2024/04/13 06:39:43;;;;;;;8.90;7.00;;;14.40;99.90;;;;;;5438823;26;20229;-67
2024/04/13 06:42:09;;;;;;;19.23;15.13;;;14.60;99.90;;;;;;5445368;26;20327;-69
2024/04/13 06:44:35;;;;;;;14.00;12.63;;;14.60;99.90;;;;;;5439346;26;20233;-66
2024/04/13 06:47:01;;;;;;;9.53;8.53;;;14.70;99.90;;;;;;5438257;26;20483;-68
2024/04/13 06:49:28;;;;;;;8.63;7.83;;;14.70;99.90;;;;;;5440810;26;20522;-67
2024/04/13 06:51:53;;;;;;;14.33;12.93;;;14.80;99.90;;;;;;5438963;26;20500;-68
2024/04/13 06:54:19;;;;;;;7.47;6.80;;;15.00;99.90;;;;;;5437366;26;20854;-66
2024/04/13 06:56:45;;;;;;;7.47;6.70;;;15.00;99.90;;;;;;5440598;26;20259;-68
2024/04/13 06:59:10;;;;;;;9.90;7.43;;;15.20;99.90;;;;;;5442362;26;20242;-68
2024/04/13 07:01:36;;;;;;;8.80;6.97;;;15.30;99.90;;;;;;5436099;26;20282;-68
2024/04/13 07:04:02;;;;;;;9.50;6.37;;;15.50;99.90;;;;;;5450425;26;20621;-67
2024/04/13 07:06:27;;;;;;;9.60;7.60;;;15.60;99.90;;;;;;5462464;26;20702;-66
2024/04/13 07:08:53;;;;;;;6.50;5.43;;;15.40;99.90;;;;;;5449439;26;20323;-68
2024/04/13 07:11:20;;;;;;;6.03;4.90;;;15.20;99.90;;;;;;5463212;26;20652;-69
2024/04/13 07:13:46;;;;;;;7.20;5.20;;;15.50;99.90;;;;;;5449516;26;21084;-67
2024/04/13 07:16:12;;;;;;;7.30;6.30;;;15.90;99.90;;;;;;5461034;26;20778;-68
2024/04/13 07:18:38;;;;;;;7.37;6.00;;;16.10;99.90;;;;;;5471855;26;20500;-67
2024/04/13 07:21:04;;;;;;;8.07;6.50;;;15.60;99.90;;;;;;5469719;26;20268;-67
2024/04/13 07:23:30;;;;;;;9.90;6.20;;;15.30;99.90;;;;;;5456902;26;20231;-69
2024/04/13 07:25:59;;;;;;;7.90;6.57;;;15.10;99.90;;;;;;5437147;26;20618;-67
2024/04/13 07:28:25;;;;;;;9.10;6.43;;;15.10;99.90;;;;;;5437652;26;20784;-68
2024/04/13 07:30:51;;;;;;;7.67;6.50;;;15.20;99.90;;;;;;5451823;26;20907;-68
2024/04/13 07:33:17;;;;;;;9.97;7.20;;;15.20;99.90;;;;;;5460235;26;20487;-68
2024/04/13 07:35:42;;;;;;;9.80;7.97;;;15.20;99.90;;;;;;5457161;26;20272;-67
2024/04/13 07:38:08;;;;;;;7.60;7.00;;;15.30;99.90;;;;;;5463859;26;20441;-66
2024/04/13 07:40:34;;;;;;;11.00;7.47;;;15.30;99.90;;;;;;5467971;26;20342;-68
2024/04/13 07:43:00;;;;;;;8.73;7.90;;;15.40;99.90;;;;;;5451321;26;20295;-68
2024/04/13 07:45:26;;;;;;;9.67;7.60;;;15.50;99.90;;;;;;5471757;26;20439;-69
2024/04/13 07:47:51;;;;;;;12.97;7.53;;;15.60;99.90;;;;;;5447755;26;20329;-68
2024/04/13 07:50:17;;;;;;;9.97;8.17;;;15.60;99.90;;;;;;5453973;26;20544;-69
2024/04/13 07:52:43;;;;;;;9.60;7.93;;;15.80;99.90;;;;;;5441161;26;20818;-69
2024/04/13 07:55:08;;;;;;;14.30;7.53;;;15.80;99.90;;;;;;5445989;20;20773;-66
2024/04/13 07:57:34;;;;;;;8.60;7.70;;;16.00;99.90;;;;;;5409323;26;21663;-66
2024/04/13 07:59:59;;;;;;;9.23;8.23;;;16.20;99.90;;;;;;5399558;26;20234;-68
2024/04/13 08:02:25;;;;;;;17.23;7.63;;;16.40;99.90;;;;;;5408754;26;20424;-69
2024/04/13 08:04:51;;;;;;;8.17;7.33;;;16.50;99.90;;;;;;5411408;26;20309;-69
2024/04/13 08:07:16;;;;;;;8.27;7.47;;;16.60;99.90;;;;;;5404092;26;20271;-68
2024/04/13 08:09:42;;;;;;;8.20;7.30;;;16.70;99.90;;;;;;5404092;26;20217;-68
2024/04/13 08:12:11;;;;;;;9.67;7.80;;;16.80;99.90;;;;;;5404089;26;20250;-67
2024/04/13 08:14:37;;;;;;;9.47;7.80;;;16.90;99.90;;;;;;5404290;26;20236;-66
2024/04/13 08:17:07;;;;;;;8.37;7.60;;;17.00;99.90;;;;;;5404307;26;20434;-67
2024/04/13 08:19:32;;;;;;;10.23;8.07;;;17.20;99.90;;;;;;5401932;26;20300;-68
2024/04/13 08:21:58;;;;;;;13.73;8.40;;;17.30;99.90;;;;;;5400744;26;20655;-69
2024/04/13 08:24:23;;;;;;;8.13;6.63;;;17.20;99.90;;;;;;5402351;26;20240;-70
2024/04/13 08:26:50;;;;;;;12.27;8.07;;;17.20;99.90;;;;;;5403849;26;20212;-69
2024/04/13 08:29:16;;;;;;;11.43;7.73;;;17.40;99.90;;;;;;5402907;26;20803;-69
2024/04/13 08:31:42;;;;;;;8.67;7.47;;;17.60;99.90;;;;;;5402552;26;20493;-70
2024/04/13 08:34:07;;;;;;;14.57;7.80;;;17.70;99.90;;;;;;5403990;26;20280;-68
2024/04/13 08:36:33;;;;;;;13.00;7.83;;;17.70;99.90;;;;;;5403856;26;20228;-67
2024/04/13 08:38:58;;;;;;;14.93;7.90;;;17.90;99.90;;;;;;5404150;26;20217;-66
2024/04/13 08:41:39;;;;;;;17.40;8.00;;;18.20;99.90;;;;;;5373175;26;20302;-68
2024/04/13 08:44:05;;;;;;;8.20;7.00;;;18.50;99.90;;;;;;5407792;26;20228;-67
2024/04/13 08:46:31;;;;;;;7.50;6.53;;;18.50;99.90;;;;;;5402840;26;20503;-68
2024/04/13 08:48:58;;;;;;;7.90;5.27;;;18.50;99.90;;;;;;5403850;26;20264;-69
2024/04/13 08:51:25;;;;;;;5.93;5.20;;;18.70;99.90;;;;;;5401862;26;20503;-69
2024/04/13 08:53:51;;;;;;;11.13;6.37;;;18.80;99.90;;;;;;5403312;26;21200;-67
2024/04/13 08:56:20;;;;;;;10.73;6.40;;;19.10;99.90;;;;;;5402136;26;20518;-69
2024/04/13 08:58:50;;;;;;;6.00;5.53;;;19.30;99.90;;;;;;5401655;26;20789;-68
2024/04/13 09:01:21;;;;;;;8.93;5.40;;;19.50;99.90;;;;;;5402854;26;20644;-69
2024/04/13 09:03:47;;;;;;;8.73;5.30;;;19.70;99.90;;;;;;5404020;26;20564;-70
2024/04/13 09:06:12;;;;;;;6.07;5.40;;;19.80;99.90;;;;;;5403803;26;20438;-68
2024/04/13 09:08:40;;;;;;;8.20;5.07;;;19.90;99.90;;;;;;5403795;26;20687;-69
2024/04/13 09:11:08;;;;;;;12.57;5.90;;;19.90;99.90;;;;;;5404782;26;20672;-67
2024/04/13 09:13:35;;;;;;;7.60;4.67;;;19.90;99.90;;;;;;5402210;26;20710;-69
2024/04/13 09:16:02;;;;;;;6.63;5.10;;;20.00;99.90;;;;;;5401681;26;20791;-70
2024/04/13 09:18:27;;;;;;;7.53;5.00;;;20.00;99.90;;;;;;5398915;26;20543;-69
2024/04/13 09:20:54;;;;;;;7.63;5.40;;;20.00;99.90;;;;;;5403304;26;20827;-68
2024/04/13 09:23:20;;;;;;;6.90;5.07;;;20.10;99.90;;;;;;5403563;26;20212;-69
2024/04/13 09:25:45;;;;;;;7.50;5.10;;;20.30;99.90;;;;;;5403077;26;20536;-68
2024/04/13 09:28:12;;;;;;;5.37;4.07;;;20.50;99.90;;;;;;5403661;26;20694;-67
2024/04/13 09:30:39;;;;;;;7.00;4.57;;;20.70;99.90;;;;;;5402334;26;20235;-68
2024/04/13 09:33:10;;;;;;;7.73;4.87;;;20.80;99.80;;;;;;5401423;26;20824;-71
2024/04/13 09:35:36;;;;;;;6.80;4.43;;;20.80;99.40;;;;;;5402635;26;20450;-68
2024/04/13 09:38:01;;;;;;;6.80;3.67;;;21.10;99.50;;;;;;5402878;26;21024;-68
2024/04/13 09:40:30;;;;;;;5.20;3.77;;;21.40;99.50;;;;;;5402807;26;20622;-68
2024/04/13 09:42:56;;;;;;;10.33;4.50;;;21.50;98.30;;;;;;5400938;26;20267;-69
2024/04/13 09:45:22;;;;;;;7.30;4.03;;;21.40;98.70;;;;;;5400652;26;20466;-69
2024/04/13 09:47:49;;;;;;;5.43;3.77;;;21.60;98.60;;;;;;5401617;26;20232;-69
2024/04/13 09:50:14;;;;;;;3.93;3.53;;;21.70;98.00;;;;;;5400431;26;20232;-70
2024/04/13 09:52:40;;;;;;;4.47;3.50;;;22.00;97.30;;;;;;5402714;26;20493;-68
2024/04/13 09:55:07;;;;;;;8.27;4.53;;;22.00;96.90;;;;;;5402685;26;20221;-68
2024/04/13 09:57:32;;;;;;;4.30;3.10;;;22.20;97.60;;;;;;5401759;26;20514;-69
2024/04/13 10:00:00;;;;;;;3.80;2.77;;;22.10;96.30;;;;;;5401486;26;20446;-69
2024/04/13 10:02:26;;;;;;;3.53;2.97;;;22.10;96.90;;;;;;5399612;26;20283;-68
2024/04/13 10:04:51;;;;;;;2.73;2.47;;;22.10;96.30;;;;;;5402168;26;20506;-69
2024/04/13 10:07:19;;;;;;;5.53;2.90;;;22.40;95.40;;;;;;5400546;26;20862;-68
2024/04/13 10:09:49;;;;;;;6.00;3.27;;;22.40;95.30;;;;;;5402916;26;20220;-70
2024/04/13 10:12:22;;;;;;;4.30;2.90;;;22.30;95.70;;;;;;5401180;26;21101;-68
2024/04/13 10:14:51;;;;;;;3.77;2.37;;;22.40;95.20;;;;;;5402508;26;20458;-70
2024/04/13 10:17:17;;;;;;;3.33;2.67;;;22.50;94.60;;;;;;5401159;26;20510;-68
2024/04/13 10:19:45;;;;;;;4.47;2.77;;;22.80;94.50;;;;;;5402747;26;20860;-70
2024/04/13 10:22:11;;;;;;;3.20;2.00;;;23.10;94.20;;;;;;5401669;26;20506;-69
2024/04/13 10:24:43;;;;;;;3.43;2.43;;;23.40;94.00;;;;;;5399919;26;20451;-71
2024/04/13 10:27:10;;;;;;;3.60;1.90;;;23.80;93.40;;;;;;5402104;26;20490;-69
2024/04/13 10:29:40;;;;;;;4.50;1.90;;;23.60;92.30;;;;;;5401200;26;20923;-71
2024/04/13 10:32:15;;;;;;;3.07;2.77;;;23.70;91.40;;;;;;5400642;26;20549;-68
2024/04/13 10:34:41;;;;;;;2.13;1.87;;;23.90;91.90;;;;;;5400867;26;20461;-68
2024/04/13 10:37:40;;;;;;;3.33;2.60;;;23.90;91.00;;;;;;5402835;26;21211;-69
2024/04/13 10:40:08;;;;;;;6.13;2.27;;;24.00;91.60;;;;;;5400354;26;20292;-69
2024/04/13 10:42:38;;;;;;;4.70;2.60;;;24.60;91.60;;;;;;5400975;26;20426;-70
2024/04/13 10:45:18;;;;;;;2.30;1.80;;;24.50;89.40;;;;;;5401927;26;20450;-69
2024/04/13 10:47:44;;;;;;;3.70;2.10;;;24.60;88.00;;;;;;5400880;26;20510;-68
2024/04/13 10:50:11;;;;;;;2.77;2.30;;;25.00;89.40;;;;;;5400889;26;21825;-70
2024/04/13 10:52:36;;;;;;;4.53;2.10;;;25.00;85.50;;;;;;5370508;26;20494;-68
2024/04/13 10:55:02;;;;;;;3.60;2.47;;;26.10;85.80;;;;;;5400275;26;20454;-69
2024/04/13 10:57:28;;;;;;;2.70;1.87;;;27.30;81.90;;;;;;5401585;26;20578;-68
2024/04/13 10:59:54;;;;;;;3.13;1.90;;;28.30;78.70;;;;;;5400733;26;20466;-71
2024/04/13 11:02:19;;;;;;;2.33;2.10;;;29.20;75.60;;;;;;5401630;26;20366;-68
2024/04/13 11:04:45;;;;;;;3.60;2.30;;;29.70;69.00;;;;;;5402179;26;20651;-69
2024/04/13 11:07:13;;;;;;;3.20;2.07;;;30.00;68.90;;;;;;5401601;26;20263;-70
2024/04/13 11:09:39;;;;;;;3.10;2.33;;;30.40;66.10;;;;;;5403407;26;20450;-69
2024/04/13 11:12:09;;;;;;;2.77;1.97;;;30.20;63.40;;;;;;5404439;26;20564;-71
2024/04/13 11:14:35;;;;;;;2.60;1.80;;;30.10;64.00;;;;;;5404534;26;20570;-70
2024/04/13 11:17:00;;;;;;;3.70;2.20;;;30.90;60.80;;;;;;5373824;26;20838;-69
2024/04/13 11:19:26;;;;;;;3.33;2.57;;;32.60;59.30;;;;;;5373272;26;20328;-71
2024/04/13 11:21:53;;;;;;;4.20;2.00;;;32.40;55.60;;;;;;5405513;26;20224;-70
2024/04/13 11:24:19;;;;;;;6.37;2.50;;;32.00;56.30;;;;;;5404776;26;21100;-70
2024/04/13 11:26:48;;;;;;;2.30;1.90;;;32.90;56.20;;;;;;5404968;26;20787;-71
2024/04/13 11:29:14;;;;;;;3.70;1.87;;;33.30;54.60;;;;;;5403242;26;20232;-70
2024/04/13 11:31:40;;;;;;;3.43;2.40;;;34.10;51.60;;;;;;5405049;26;20445;-70
2024/04/13 11:34:05;;;;;;;7.73;2.60;;;35.60;50.10;;;;;;5404889;26;20453;-70
2024/04/13 11:36:31;;;;;;;13.87;4.07;;;33.90;49.40;;;;;;5405192;26;20694;-68
2024/04/13 11:38:57;;;;;;;5.57;3.10;;;33.90;50.00;;;;;;5404843;26;20591;-70
2024/04/13 11:41:23;;;;;;;6.17;2.87;;;32.40;51.00;;;;;;5404973;26;20437;-67
2024/04/13 11:43:59;;;;;;;5.00;2.30;;;31.50;53.60;;;;;;5403733;26;20345;-69
2024/04/13 11:46:24;;;;;;;4.20;2.37;;;30.60;54.30;;;;;;5404740;26;20219;-69
2024/04/13 11:48:51;;;;;;;4.50;2.30;;;30.30;55.20;;;;;;5403252;26;20543;-70
2024/04/13 11:51:16;;;;;;;3.83;2.20;;;31.40;53.20;;;;;;5402530;26;20998;-71
2024/04/13 11:53:43;;;;;;;4.40;2.00;;;30.50;54.40;;;;;;5401820;26;20232;-67
2024/04/13 11:56:12;;;;;;;6.03;2.93;;;29.90;55.50;;;;;;5402656;26;20232;-68
2024/04/13 11:58:47;;;;;;;5.70;2.30;;;29.80;55.20;;;;;;5404308;26;20530;-68
2024/04/13 12:01:13;;;;;;;3.40;2.47;;;31.00;54.30;;;;;;5404624;26;20525;-68
2024/04/13 12:03:39;;;;;;;3.50;2.03;;;30.90;53.50;;;;;;5402638;26;20446;-68
2024/04/13 12:06:05;;;;;;;2.50;1.83;;;29.90;54.90;;;;;;5404673;26;20641;-70
2024/04/13 12:08:31;;;;;;;4.00;1.93;;;29.10;56.40;;;;;;5403232;26;20237;-68
2024/04/13 12:10:57;;;;;;;5.97;2.50;;;31.30;54.00;;;;;;5372960;26;20490;-70
2024/04/13 12:13:23;;;;;;;4.40;1.77;;;32.30;52.40;;;;;;5403980;26;20217;-70
2024/04/13 12:15:49;;;;;;;4.90;2.80;;;31.20;53.60;;;;;;5402960;26;20510;-70
2024/04/13 12:18:15;;;;;;;2.60;2.20;;;30.10;54.40;;;;;;5404024;26;20438;-70
2024/04/13 12:20:41;;;;;;;6.13;1.73;;;30.40;54.60;;;;;;5402877;26;20781;-68
2024/04/13 12:23:07;;;;;;;4.30;2.37;;;30.60;53.80;;;;;;5404028;26;20482;-70
2024/04/13 12:25:33;;;;;;;3.27;2.10;;;31.30;53.30;;;;;;5370685;26;20478;-68
2024/04/13 12:27:59;;;;;;;5.43;2.07;;;31.30;52.60;;;;;;5404064;26;20216;-69
2024/04/13 12:30:25;;;;;;;2.80;2.07;;;32.00;52.30;;;;;;5402484;26;20462;-69
2024/04/13 12:32:51;;;;;;;3.23;2.50;;;31.70;52.40;;;;;;5403742;26;20217;-70
2024/04/13 12:35:18;;;;;;;4.53;2.40;;;32.10;51.30;;;;;;5403502;26;20537;-69
2024/04/13 12:37:44;;;;;;;4.23;2.23;;;32.30;50.90;;;;;;5403650;26;20268;-68
2024/04/13 12:40:10;;;;;;;4.33;2.40;;;31.50;52.70;;;;;;5404172;26;20442;-71
2024/04/13 12:42:35;;;;;;;2.90;2.37;;;31.60;52.40;;;;;;5403748;26;20212;-70